createdAt,value
2022-08-29T00:02:12.318Z,100727.75
2022-08-29T00:04:44.783Z,100724.42
2022-08-29T00:07:16.868Z,100727.49
2022-08-29T00:09:49.094Z,100729.23
2022-08-29T00:12:21.272Z,100732.48
2022-08-29T00:14:53.415Z,100728.22
2022-08-29T00:17:26.263Z,100728.48
2022-08-29T00:19:59.043Z,100728.98
2022-08-29T00:22:31.330Z,100725.15
2022-08-29T00:25:04.962Z,100724.23
2022-08-29T00:27:37.322Z,100724.63
2022-08-29T00:30:12.613Z,100728.13
2022-08-29T00:32:45.509Z,100729.80
2022-08-29T00:35:22.553Z,100729.23
2022-08-29T00:37:56.066Z,100729.75
2022-08-29T00:40:36.969Z,100733.36
2022-08-29T00:43:09.869Z,100737.35
2022-08-29T00:45:48.425Z,100734.98
2022-08-29T00:48:21.131Z,100724.25
2022-08-29T00:51:04.438Z,100738.67
2022-08-29T00:53:41.132Z,100738.68
2022-08-29T00:56:17.209Z,100736.43
2022-08-29T00:58:52.630Z,100738.15
2022-08-29T01:01:25.477Z,100742.60
2022-08-29T01:03:58.390Z,100744.06
2022-08-29T01:06:32.787Z,100747.86
2022-08-29T01:09:05.239Z,100742.47
2022-08-29T01:11:56.066Z,100742.04
2022-08-29T01:14:28.986Z,100746.60
2022-08-29T01:17:04.621Z,100748.17
2022-08-29T01:19:46.251Z,100751.85
2022-08-29T01:22:35.284Z,100751.68
2022-08-29T01:25:12.953Z,100756.90
2022-08-29T01:27:49.809Z,100754.03
2022-08-29T01:30:22.338Z,100752.94
2022-08-29T01:32:57.690Z,100744.74
2022-08-29T01:35:31.457Z,100757.37
2022-08-29T01:38:06.420Z,100754.87
2022-08-29T01:40:38.724Z,100758.89
2022-08-29T01:43:10.902Z,100756.73
2022-08-29T01:45:43.021Z,100757.69
2022-08-29T01:48:15.336Z,100759.83
2022-08-29T01:50:48.407Z,100756.30
2022-08-29T01:53:20.480Z,100755.74
2022-08-29T01:55:52.623Z,100752.11
2022-08-29T01:58:25.034Z,100757.11
2022-08-29T02:00:57.779Z,100759.23
2022-08-29T02:03:30.309Z,100756.59
2022-08-29T02:06:05.533Z,100760.13
2022-08-29T02:08:38.290Z,100754.23
2022-08-29T02:11:12.258Z,100755.09
2022-08-29T02:13:47.885Z,100755.33
2022-08-29T02:16:20.429Z,100753.86
2022-08-29T02:18:53.149Z,100755.91
2022-08-29T02:21:30.549Z,100753.94
2022-08-29T02:24:21.618Z,100751.45
2022-08-29T02:26:58.628Z,100753.55
2022-08-29T02:29:37.900Z,100750.39
2022-08-29T02:32:13.054Z,100746.60
2022-08-29T02:34:47.703Z,100745.50
2022-08-29T02:37:21.022Z,100748.30
2022-08-29T02:39:53.713Z,100746.60
2022-08-29T02:42:26.225Z,100753.15
2022-08-29T02:44:58.392Z,100754.95
2022-08-29T02:47:30.905Z,100759.02
2022-08-29T02:50:04.358Z,100758.82
2022-08-29T02:52:37.469Z,100755.73
2022-08-29T02:55:15.427Z,100755.75
2022-08-29T02:57:48.954Z,100739.94
2022-08-29T03:00:24.609Z,100762.31
2022-08-29T03:02:58.795Z,100758.63
2022-08-29T03:05:35.149Z,100763.08
2022-08-29T03:08:10.830Z,100763.40
2022-08-29T03:10:44.576Z,100766.64
2022-08-29T03:13:18.337Z,100764.09
2022-08-29T03:15:50.825Z,100765.25
2022-08-29T03:18:23.436Z,100763.63
2022-08-29T03:20:55.717Z,100763.70
2022-08-29T03:23:27.862Z,100762.80
2022-08-29T03:26:00.147Z,100754.55
2022-08-29T03:28:32.978Z,100771.97
2022-08-29T03:31:05.248Z,100769.13
2022-08-29T03:33:37.365Z,100766.85
2022-08-29T03:36:14.325Z,100767.03
2022-08-29T03:38:48.301Z,100767.63
2022-08-29T03:41:28.039Z,100773.02
2022-08-29T03:44:00.398Z,100775.44
2022-08-29T03:46:33.284Z,100779.96
2022-08-29T03:49:05.603Z,100781.60
2022-08-29T03:51:38.971Z,100785.48
2022-08-29T03:54:11.870Z,100787.66
2022-08-29T03:56:43.963Z,100786.27
2022-08-29T03:59:16.770Z,100786.65
2022-08-29T04:01:49.039Z,100791.08
2022-08-29T04:04:39.534Z,100791.45
2022-08-29T04:07:14.989Z,100788.55
2022-08-29T04:09:47.527Z,100789.50
2022-08-29T04:12:20.238Z,100786.13
2022-08-29T04:14:52.700Z,100793.61
2022-08-29T04:17:31.374Z,100797.34
2022-08-29T04:20:05.197Z,100794.92
2022-08-29T04:22:39.729Z,100797.89
2022-08-29T04:25:14.792Z,100805.60
2022-08-29T04:27:47.327Z,100800.06
2022-08-29T04:30:22.112Z,100797.90
2022-08-29T04:32:57.395Z,100800.42
2022-08-29T04:35:31.111Z,100803.72
2022-08-29T04:38:03.374Z,100808.86
2022-08-29T04:40:36.244Z,100813.27
2022-08-29T04:43:08.811Z,100817.21
2022-08-29T04:45:41.890Z,100812.30
2022-08-29T04:48:14.046Z,100814.30
2022-08-29T04:50:46.120Z,100810.91
2022-08-29T04:53:18.316Z,100808.27
2022-08-29T04:55:58.648Z,100806.52
2022-08-29T04:58:31.902Z,100804.67
2022-08-29T05:01:05.170Z,100808.00
2022-08-29T05:03:37.987Z,100808.13
2022-08-29T05:06:13.050Z,100807.41
2022-08-29T05:08:46.086Z,100808.08
2022-08-29T05:11:22.482Z,100805.33
2022-08-29T05:13:56.262Z,100802.80
2022-08-29T05:16:30.187Z,100814.13
2022-08-29T05:19:03.231Z,100815.42
2022-08-29T05:21:37.489Z,100817.30
2022-08-29T05:24:12.749Z,100810.56
2022-08-29T05:26:46.432Z,100817.39
2022-08-29T05:29:21.268Z,100823.11
2022-08-29T05:31:51.815Z,100824.70
2022-08-29T05:34:33.904Z,100824.40
2022-08-29T05:37:10.699Z,100827.61
2022-08-29T05:39:43.679Z,100828.36
2022-08-29T05:42:17.616Z,100829.83
2022-08-29T05:44:50.207Z,100837.79
2022-08-29T05:47:23.106Z,100823.96
2022-08-29T05:49:57.898Z,100834.02
2022-08-29T05:52:30.531Z,100837.02
2022-08-29T05:55:06.104Z,100836.44
2022-08-29T05:57:38.358Z,100845.41
2022-08-29T06:00:12.944Z,100841.52
2022-08-29T06:02:45.526Z,100845.95
2022-08-29T06:05:20.819Z,100839.70
2022-08-29T06:07:52.942Z,100840.34
2022-08-29T06:10:25.433Z,100838.80
2022-08-29T06:12:58.271Z,100845.14
2022-08-29T06:15:31.081Z,100847.73
2022-08-29T06:18:03.516Z,100854.17
2022-08-29T06:20:35.809Z,100855.49
2022-08-29T06:23:08.099Z,100854.25
2022-08-29T06:25:41.535Z,100851.89
2022-08-29T06:28:14.322Z,100852.17
2022-08-29T06:30:56.397Z,100854.66
2022-08-29T06:33:28.644Z,100856.54
2022-08-29T06:36:00.927Z,100855.02
2022-08-29T06:38:33.474Z,100842.22
2022-08-29T06:41:07.997Z,100858.17
2022-08-29T06:43:39.023Z,100863.09
2022-08-29T06:46:19.923Z,100866.81
2022-08-29T06:48:52.834Z,100866.00
2022-08-29T06:51:26.166Z,100867.21
2022-08-29T06:53:58.599Z,100874.61
2022-08-29T06:56:31.948Z,100877.61
2022-08-29T06:59:04.031Z,100878.89
2022-08-29T07:01:36.980Z,100874.10
2022-08-29T07:04:14.230Z,100885.00
2022-08-29T07:06:47.260Z,100882.27
2022-08-29T07:09:19.663Z,100879.23
2022-08-29T07:11:54.127Z,100883.45
2022-08-29T07:14:26.597Z,100889.95
2022-08-29T07:17:00.727Z,100894.20
2022-08-29T07:19:32.872Z,100896.96
2022-08-29T07:22:05.279Z,100899.70
2022-08-29T07:24:37.790Z,100900.65
2022-08-29T07:27:12.125Z,100904.16
2022-08-29T07:29:47.643Z,100898.39
2022-08-29T07:32:25.294Z,100900.58
2022-08-29T07:34:58.105Z,100904.24
2022-08-29T07:37:30.334Z,100905.96
2022-08-29T07:40:02.814Z,100906.02
2022-08-29T07:42:36.012Z,100905.39
2022-08-29T07:45:10.817Z,100903.05
2022-08-29T07:47:43.304Z,100906.45
2022-08-29T07:50:17.187Z,100904.58
2022-08-29T07:52:49.678Z,100907.77
2022-08-29T07:55:23.048Z,100908.19
2022-08-29T07:57:55.592Z,100901.00
2022-08-29T08:00:29.483Z,100906.60
2022-08-29T08:03:01.902Z,100903.64
2022-08-29T08:05:34.286Z,100903.86
2022-08-29T08:08:14.954Z,100904.05
2022-08-29T08:10:52.040Z,100903.15
2022-08-29T08:13:24.706Z,100906.33
2022-08-29T08:15:57.208Z,100904.48
2022-08-29T08:18:29.987Z,100904.07
2022-08-29T08:21:02.091Z,100906.38
2022-08-29T08:23:34.641Z,100904.59
2022-08-29T08:26:08.283Z,100909.59
2022-08-29T08:28:41.647Z,100907.70
2022-08-29T08:31:15.729Z,100905.02
2022-08-29T08:33:48.434Z,100907.45
2022-08-29T08:36:23.294Z,100916.05
2022-08-29T08:38:57.497Z,100913.90
2022-08-29T08:41:42.231Z,100908.03
2022-08-29T08:44:32.993Z,100909.55
2022-08-29T08:47:10.492Z,100914.64
2022-08-29T08:49:50.135Z,100912.39
2022-08-29T08:52:29.298Z,100913.92
2022-08-29T08:55:06.116Z,100916.21
2022-08-29T08:57:45.342Z,100910.08
2022-08-29T09:00:17.994Z,100915.89
2022-08-29T09:03:01.720Z,100912.48
2022-08-29T09:05:49.347Z,100906.92
2022-08-29T09:08:32.172Z,100904.41
2022-08-29T09:11:11.414Z,100905.58
2022-08-29T09:13:58.227Z,100904.84
2022-08-29T09:16:35.425Z,100902.08
2022-08-29T09:19:11.874Z,100909.45
2022-08-29T09:21:52.056Z,100907.16
2022-08-29T09:24:35.032Z,100907.70
2022-08-29T09:27:09.164Z,100913.02
2022-08-29T09:29:42.060Z,100915.15
2022-08-29T09:32:20.301Z,100895.35
2022-08-29T09:35:08.545Z,100903.08
2022-08-29T09:37:41.804Z,100909.30
2022-08-29T09:40:19.043Z,100909.33
2022-08-29T09:43:03.455Z,100913.13
2022-08-29T09:45:35.835Z,100914.23
2022-08-29T09:48:18.984Z,100910.98
2022-08-29T09:50:51.617Z,100913.10
2022-08-29T09:53:26.861Z,100908.94
2022-08-29T09:56:08.372Z,100907.70
2022-08-29T09:58:42.988Z,100909.52
2022-08-29T10:01:24.829Z,100913.17
2022-08-29T10:04:03.026Z,100916.96
2022-08-29T10:06:40.005Z,100913.81
2022-08-29T10:09:28.917Z,100910.08
2022-08-29T10:12:07.202Z,100912.45
2022-08-29T10:14:49.753Z,100914.19
2022-08-29T10:17:47.876Z,100900.04
2022-08-29T10:20:21.130Z,100907.65
2022-08-29T10:23:05.258Z,100920.87
2022-08-29T10:25:40.521Z,100915.02
2022-08-29T10:28:22.626Z,100918.02
2022-08-29T10:31:02.813Z,100892.16
2022-08-29T10:33:56.883Z,100913.65
2022-08-29T10:36:34.167Z,100916.31
2022-08-29T10:39:15.427Z,100919.11
2022-08-29T10:41:58.459Z,100910.29
2022-08-29T10:44:38.154Z,100914.88
2022-08-29T10:47:23.375Z,100905.75
2022-08-29T10:50:10.112Z,100909.44
2022-08-29T10:53:00.118Z,100912.43
2022-08-29T10:55:47.791Z,100915.89
2022-08-29T10:58:41.597Z,100910.73
2022-08-29T11:01:18.805Z,100908.41
2022-08-29T11:04:01.953Z,100913.84
2022-08-29T11:06:38.697Z,100917.73
2022-08-29T11:09:15.201Z,100919.52
2022-08-29T11:11:54.193Z,100917.02
2022-08-29T11:14:29.545Z,100920.11
2022-08-29T11:17:05.315Z,100918.02
2022-08-29T11:19:47.025Z,100913.77
2022-08-29T11:22:25.543Z,100914.84
2022-08-29T11:25:07.180Z,100914.43
2022-08-29T11:27:53.662Z,100908.98
2022-08-29T11:30:40.278Z,100908.63
2022-08-29T11:33:26.983Z,100907.28
2022-08-29T11:36:19.233Z,100912.86
2022-08-29T11:39:23.950Z,100914.44
2022-08-29T11:42:00.338Z,100911.05
2022-08-29T11:44:37.088Z,100911.52
2022-08-29T11:47:40.587Z,100911.70
2022-08-29T11:50:29.665Z,100917.13
2022-08-29T11:53:09.876Z,100911.23
2022-08-29T11:55:44.378Z,100919.80
2022-08-29T11:58:32.949Z,100920.06
2022-08-29T12:01:06.943Z,100915.80
2022-08-29T12:03:48.385Z,100919.29
2022-08-29T12:06:54.540Z,100920.09
2022-08-29T12:09:44.001Z,100922.27
2022-08-29T12:12:46.586Z,100923.70
2022-08-29T12:15:54.925Z,100919.67
2022-08-29T12:18:50.866Z,100917.96
2022-08-29T12:21:49.017Z,100919.02
2022-08-29T12:24:44.219Z,100912.88
2022-08-29T12:28:06.345Z,100915.30
2022-08-29T12:30:44.343Z,100919.09
2022-08-29T12:33:25.588Z,100915.47
2022-08-29T12:36:26.000Z,100903.86
2022-08-29T12:39:19.427Z,100918.89
2022-08-29T12:42:22.879Z,100920.57
2022-08-29T12:45:05.030Z,100921.66
2022-08-29T12:47:45.835Z,100913.85
2022-08-29T12:50:23.648Z,100918.84
2022-08-29T12:53:04.934Z,100920.06
2022-08-29T12:55:43.542Z,100917.20
2022-08-29T12:58:34.570Z,100920.39
2022-08-29T13:01:20.981Z,100919.04
2022-08-29T13:04:04.770Z,100910.04
2022-08-29T13:06:38.141Z,100915.92
2022-08-29T13:09:14.461Z,100911.72
2022-08-29T13:11:50.071Z,100910.90
2022-08-29T13:14:24.459Z,100910.86
2022-08-29T13:16:56.587Z,100907.12
2022-08-29T13:19:28.784Z,100909.08
2022-08-29T13:22:07.096Z,100911.58
2022-08-29T13:24:39.259Z,100913.75
2022-08-29T13:27:25.915Z,100915.98
2022-08-29T13:30:02.067Z,100915.84
2022-08-29T13:32:36.436Z,100912.42
2022-08-29T13:35:20.740Z,100912.90
2022-08-29T13:38:19.171Z,100918.02
2022-08-29T13:40:53.455Z,100914.38
2022-08-29T13:43:44.856Z,100917.34
2022-08-29T13:46:22.206Z,100912.75
2022-08-29T13:49:00.987Z,100914.85
2022-08-29T13:51:33.852Z,100914.60
2022-08-29T13:54:06.012Z,100918.86
2022-08-29T13:56:38.608Z,100912.66
2022-08-29T13:59:11.941Z,100914.81
2022-08-29T14:04:39.340Z,100914.36
2022-08-29T14:07:18.972Z,100916.64
2022-08-29T14:09:51.468Z,100919.98
2022-08-29T14:12:30.396Z,100910.45
2022-08-29T14:15:09.633Z,100919.52
2022-08-29T14:17:43.345Z,100914.20
2022-08-29T14:20:18.765Z,100911.70
2022-08-29T14:22:51.024Z,100912.15
2022-08-29T14:25:24.868Z,100912.10
2022-08-29T14:27:56.994Z,100908.47
2022-08-29T14:30:29.690Z,100912.06
2022-08-29T14:33:02.350Z,100909.20
2022-08-29T14:35:35.243Z,100904.13
2022-08-29T14:38:11.127Z,100907.46
2022-08-29T14:40:43.849Z,100908.60
2022-08-29T14:43:16.079Z,100905.38
2022-08-29T14:45:48.262Z,100910.17
2022-08-29T14:48:20.805Z,100911.79
2022-08-29T14:50:52.983Z,100909.41
2022-08-29T14:53:25.466Z,100909.52
2022-08-29T14:55:58.904Z,100905.75
2022-08-29T14:58:31.340Z,100904.33
2022-08-29T15:01:04.180Z,100903.73
2022-08-29T15:03:36.438Z,100898.44
2022-08-29T15:06:09.596Z,100899.84
2022-08-29T15:08:43.738Z,100896.92
2022-08-29T15:11:16.248Z,100894.32
2022-08-29T15:13:48.686Z,100884.76
2022-08-29T15:16:21.007Z,100884.94
2022-08-29T15:19:37.198Z,100893.73
2022-08-29T15:21:46.076Z,100901.52
2022-08-29T15:24:19.057Z,100901.30
2022-08-29T15:26:51.243Z,100910.80
2022-08-29T15:29:24.281Z,100906.15
2022-08-29T15:31:57.575Z,100902.54
2022-08-29T15:34:30.543Z,100901.98
2022-08-29T15:37:03.968Z,100897.83
2022-08-29T15:39:36.572Z,100895.38
2022-08-29T15:42:12.093Z,100894.52
2022-08-29T15:44:51.184Z,100886.67
2022-08-29T15:47:25.691Z,100884.52
2022-08-29T15:49:58.841Z,100886.54
2022-08-29T15:52:31.702Z,100887.48
2022-08-29T15:55:04.904Z,100878.48
2022-08-29T15:57:51.182Z,100876.66
2022-08-29T16:00:30.436Z,100883.98
2022-08-29T16:03:07.171Z,100886.45
2022-08-29T16:05:40.831Z,100885.52
2022-08-29T16:08:17.478Z,100879.86
2022-08-29T16:10:51.962Z,100877.37
2022-08-29T16:13:24.171Z,100874.28
2022-08-29T16:15:56.332Z,100876.77
2022-08-29T16:18:28.846Z,100882.65
2022-08-29T16:21:01.213Z,100889.60
2022-08-29T16:23:33.821Z,100883.97
2022-08-29T16:26:06.394Z,100886.80
2022-08-29T16:28:39.268Z,100888.07
2022-08-29T16:31:11.390Z,100888.61
2022-08-29T16:33:44.553Z,100890.42
2022-08-29T16:36:17.407Z,100892.08
2022-08-29T16:38:49.870Z,100895.05
2022-08-29T16:41:25.162Z,100895.30
2022-08-29T16:43:57.389Z,100892.14
2022-08-29T16:46:31.280Z,100889.94
2022-08-29T16:49:03.588Z,100893.78
2022-08-29T16:51:35.938Z,100896.66
2022-08-29T16:54:08.622Z,100895.08
2022-08-29T16:56:40.937Z,100898.31
2022-08-29T16:59:13.646Z,100899.38
2022-08-29T17:01:50.145Z,100898.34
2022-08-29T17:04:24.810Z,100904.23
2022-08-29T17:06:57.570Z,100903.44
2022-08-29T17:09:29.110Z,100907.89
2022-08-29T17:12:02.023Z,100887.55
2022-08-29T17:14:33.668Z,100904.63
2022-08-29T17:17:05.993Z,100901.61
2022-08-29T17:19:38.182Z,100898.96
2022-08-29T17:22:15.849Z,100915.21
2022-08-29T17:24:48.070Z,100917.21
2022-08-29T17:27:21.907Z,100921.23
2022-08-29T17:29:55.011Z,100922.70
2022-08-29T17:32:27.140Z,100911.60
2022-08-29T17:34:59.316Z,100920.86
2022-08-29T17:37:36.066Z,100910.34
2022-08-29T17:40:10.860Z,100919.09
2022-08-29T17:42:44.117Z,100917.05
2022-08-29T17:45:17.046Z,100918.20
2022-08-29T17:47:49.542Z,100918.62
2022-08-29T17:50:22.814Z,100915.33
2022-08-29T17:52:55.439Z,100919.73
2022-08-29T17:55:30.139Z,100920.00
2022-08-29T17:58:01.036Z,100920.61
2022-08-29T18:00:33.280Z,100927.13
2022-08-29T18:03:05.607Z,100924.82
2022-08-29T18:05:37.949Z,100928.30
2022-08-29T18:08:10.245Z,100929.14
2022-08-29T18:10:43.137Z,100931.73
2022-08-29T18:13:19.737Z,100931.37
2022-08-29T18:15:53.982Z,100934.71
2022-08-29T18:18:26.435Z,100939.23
2022-08-29T18:20:59.128Z,100937.61
2022-08-29T18:23:31.505Z,100931.90
2022-08-29T18:26:04.184Z,100946.41
2022-08-29T18:28:36.739Z,100948.11
2022-08-29T18:31:09.864Z,100949.80
2022-08-29T18:33:59.449Z,100956.21
2022-08-29T18:36:34.568Z,100958.60
2022-08-29T18:39:07.787Z,100941.89
2022-08-29T18:41:40.857Z,100957.51
2022-08-29T18:44:13.627Z,100959.37
2022-08-29T18:46:48.414Z,100960.75
2022-08-29T18:49:41.041Z,100956.55
2022-08-29T18:52:13.858Z,100960.90
2022-08-29T18:54:46.169Z,100960.27
2022-08-29T18:57:18.753Z,100950.77
2022-08-29T18:59:51.084Z,100950.10
2022-08-29T19:02:23.597Z,100963.59
2022-08-29T19:04:55.869Z,100966.08
2022-08-29T19:07:28.420Z,100959.19
2022-08-29T19:10:00.977Z,100960.49
2022-08-29T19:12:35.273Z,100962.58
2022-08-29T19:15:09.972Z,100965.97
2022-08-29T19:17:43.108Z,100960.77
2022-08-29T19:20:39.095Z,100956.29
2022-08-29T19:23:13.252Z,100951.08
2022-08-29T19:25:46.384Z,100946.05
2022-08-29T19:28:19.951Z,100963.04
2022-08-29T19:30:54.680Z,100962.98
2022-08-29T19:33:25.863Z,100964.71
2022-08-29T19:35:58.196Z,100965.28
2022-08-29T19:38:31.580Z,100960.82
2022-08-29T19:41:05.318Z,100968.47
2022-08-29T19:43:38.766Z,100967.92
2022-08-29T19:46:16.662Z,100968.16
2022-08-29T19:48:51.610Z,100970.64
2022-08-29T19:51:25.770Z,100976.03
2022-08-29T19:53:59.210Z,100971.61
2022-08-29T19:56:33.392Z,100978.05
2022-08-29T19:59:06.002Z,100972.92
2022-08-29T20:01:39.336Z,100975.84
2022-08-29T20:04:11.583Z,100972.59
2022-08-29T20:06:46.804Z,100971.06
2022-08-29T20:09:20.696Z,100971.11
2022-08-29T20:11:53.197Z,100968.53
2022-08-29T20:14:26.119Z,100965.38
2022-08-29T20:16:58.405Z,100971.71
2022-08-29T20:19:31.592Z,100972.76
2022-08-29T20:22:04.311Z,100972.31
2022-08-29T20:24:36.625Z,100975.16
2022-08-29T20:27:09.136Z,100977.23
2022-08-29T20:29:41.772Z,100978.08
2022-08-29T20:32:14.323Z,100978.72
2022-08-29T20:34:46.695Z,100979.04
2022-08-29T20:37:20.177Z,100978.83
2022-08-29T20:39:52.598Z,100981.09
2022-08-29T20:42:25.460Z,100981.68
2022-08-29T20:45:00.207Z,100983.73
2022-08-29T20:47:32.581Z,100983.34
2022-08-29T20:50:04.906Z,100983.52
2022-08-29T20:52:39.805Z,100987.56
2022-08-29T20:55:12.758Z,100991.81
2022-08-29T20:57:45.165Z,100986.08
2022-08-29T21:00:19.849Z,100977.64
2022-08-29T21:03:09.780Z,100980.02
2022-08-29T21:05:45.716Z,100985.94
2022-08-29T21:08:20.299Z,100983.34
2022-08-29T21:10:57.769Z,100986.67
2022-08-29T21:13:30.622Z,100990.27
2022-08-29T21:16:04.683Z,100994.90
2022-08-29T21:18:36.737Z,100995.48
2022-08-29T21:21:12.216Z,100997.77
2022-08-29T21:23:44.512Z,100987.45
2022-08-29T21:26:17.871Z,100995.77
2022-08-29T21:28:50.149Z,100997.80
2022-08-29T21:31:22.408Z,100998.39
2022-08-29T21:33:54.911Z,100999.14
2022-08-29T21:36:29.454Z,101002.56
2022-08-29T21:39:03.036Z,101003.92
2022-08-29T21:41:38.858Z,101005.42
2022-08-29T21:44:12.509Z,101010.23
2022-08-29T21:46:49.037Z,101017.23
2022-08-29T21:49:22.591Z,101015.05
2022-08-29T21:51:55.057Z,101014.70
2022-08-29T21:54:27.218Z,101019.96
2022-08-29T21:56:59.555Z,101022.55
2022-08-29T21:59:31.812Z,101023.95
2022-08-29T22:02:04.331Z,101032.70
2022-08-29T22:04:36.783Z,101035.73
2022-08-29T22:07:10.849Z,101034.23
2022-08-29T22:09:43.668Z,101041.63
2022-08-29T22:12:15.631Z,101040.27
2022-08-29T22:15:05.867Z,101040.92
2022-08-29T22:17:38.414Z,101044.82
2022-08-29T22:20:11.503Z,101045.77
2022-08-29T22:22:43.857Z,101037.70
2022-08-29T22:25:16.444Z,101048.84
2022-08-29T22:27:48.907Z,101048.02
2022-08-29T22:30:21.216Z,101052.11
2022-08-29T22:32:58.798Z,101051.55
2022-08-29T22:35:31.535Z,101049.94
2022-08-29T22:38:04.122Z,101042.90
2022-08-29T22:40:37.754Z,101046.88
2022-08-29T22:43:10.318Z,101039.44
2022-08-29T22:45:44.120Z,101053.00
2022-08-29T22:48:18.956Z,101051.00
2022-08-29T22:50:54.089Z,101057.86
2022-08-29T22:53:30.819Z,101056.11
2022-08-29T22:56:02.864Z,101063.13
2022-08-29T22:58:36.742Z,101057.80
2022-08-29T23:01:09.466Z,101059.59
2022-08-29T23:03:41.863Z,101059.51
2022-08-29T23:06:14.023Z,101057.64
2022-08-29T23:08:46.286Z,101058.63
2022-08-29T23:11:18.909Z,101062.00
2022-08-29T23:13:51.062Z,101067.62
2022-08-29T23:16:25.050Z,101064.01
2022-08-29T23:18:57.917Z,101066.83
2022-08-29T23:21:30.977Z,101068.29
2022-08-29T23:24:03.447Z,101062.38
2022-08-29T23:26:36.700Z,101067.15
2022-08-29T23:29:08.833Z,101056.52
2022-08-29T23:31:41.230Z,101062.84
2022-08-29T23:34:13.424Z,101060.76
2022-08-29T23:36:45.564Z,101059.85
2022-08-29T23:39:17.595Z,101057.48
2022-08-29T23:41:49.623Z,101063.40
2022-08-29T23:44:21.870Z,101058.48
2022-08-29T23:46:56.149Z,101053.18
2022-08-29T23:49:27.443Z,101064.32
2022-08-29T23:51:59.707Z,101066.41
2022-08-29T23:54:32.486Z,101060.15
2022-08-29T23:57:04.894Z,101059.86
2022-08-29T23:59:54.570Z,101064.63
